Albion, Oklahoma
Current Conditions -  °F | °C
As of 1:55 PM on Thursday 30 Oct 2014 (Local Time) from KRKR Reporting Station
Scattered Clouds Scattered Clouds  
Wind Chill: 22°   Ceiling: Unl
Heat Index: 22°   Visibility: 10mi
Dew Point:   Wind: 10mph
Humidity: 30%   Direction: 210°SSW
Pressure: 30.07"   Gusts: 16mph
Location:  34.66°N, 95.1°W
Report Text: KRKR 301855Z AUTO 21009G14KT 10SM SCT065 22/03 A3007 RMK AO2 T02160031
Loading
Personal Weather Stations






























Interactive Weather Map
Tropical Storm Tracking
New forecast layout! Learn more

10-Day Weather Forecast

Advertisements
Track Severe Weather on mobile